Talghar, Kazakhstan
Current Conditions -  °F | °C
As of 4:30 PM on Saturday 20 Dec 2014 (Local Time) from UAAA Reporting Station
Smoke Smoke  
Wind Chill: 25°   Ceiling: 20000
Heat Index: 30°   Visibility: 0.87mi
Dew Point: 19°   Wind: 4mph
Humidity: 64%   Direction: 70°ENE
Pressure: 30.24"   Gusts: NA
Location:  43.3°N, 77.22°E
Report Text: UAAA 201030Z 07002MPS 1400 R05L/P2000 R05R/1400N FU SCT100BKN200 M01/M07 Q1024 R88/81//60 NOSIG
Loading
Personal Weather Stations






























Interactive Weather Map New forecast layout! Learn more

10-Day Weather Forecast

Advertisements
Track Severe Weather on mobile